Flight Track Log - Related Links

Times and Time Zones

All times are in EDT time to prevent confusion due to time zone crossing. See the SWA245 flight status page for this flight to view local times or setup timezone preferences in your user account.

Time Position Orientation Groundspeed Altitude Reporting Facility
EDT Latitude Longitude Course Direction KTS MPH feet Rate Location/Type
Tue 10:49:05 AM 34.0500 -117.6333 270° West 167 192 2,200  Level Southern California TRACON
Tue 10:50:05 AM 34.0500 -117.7000 270° West 221 254 4,400 2,135 Climbing Southern California TRACON
Tue 10:51:48 AM 34.1122 -117.8364 299° West 275 316 8,000 2,545 Climbing Los Angeles Center
Tue 10:52:50 AM 34.1653 -117.9097 311° West 286 329 11,400 3,171 Climbing Los Angeles Center
Tue 10:53:51 AM 34.2253 -117.9989 309° West 329 379 14,500 3,317 Climbing Los Angeles Center
Tue 10:54:53 AM 34.2878 -118.0947 308° West 359 413 18,200 3,242 Climbing Los Angeles Center
Tue 10:55:55 AM 34.3531 -118.1908 309° West 366 421 21,200 2,855 Climbing Los Angeles Center
Tue 10:56:57 AM 34.4217 -118.2928 309° West 392 451 24,100 2,780 Climbing Los Angeles Center
Tue 10:57:58 AM 34.5042 -118.4144 309° West 393 452 26,900 2,439 Climbing Los Angeles Center
Tue 10:59:00 AM 34.5942 -118.5042 321° Northwest 424 488 29,100 2,169 Climbing Los Angeles Center
Tue 11:00:44 AM 34.7661 -118.6156 332° Northwest 423 487 32,900 2,182 Climbing Oakland Center
Tue 11:01:45 AM 34.8683 -118.6814 332° Northwest 422 486 35,100 2,244 Climbing Oakland Center
Tue 11:02:47 AM 34.9647 -118.7453 331° Northwest 411 473 37,500 1,854 Climbing Oakland Center
Tue 11:03:48 AM 35.0575 -118.8075 331° Northwest 397 457 38,900 1,230 Climbing Oakland Center
Tue 11:04:49 AM 35.1672 -118.8836 330° Northwest 386 444 40,000 541 Climbing Oakland Center
Tue 11:05:50 AM 35.2633 -118.9472 332° Northwest 387 445 40,000  Level Oakland Center
Tue 11:06:52 AM 35.3594 -119.0122 331° Northwest 391 450 40,000  Level Oakland Center
Tue 11:07:53 AM 35.4556 -119.0767 331° Northwest 391 450 40,000  Level Oakland Center
Tue 11:08:54 AM 35.5547 -119.1331 335° Northwest 393 452 40,000  Level Oakland Center
Tue 11:09:55 AM 35.6575 -119.1850 338° Northwest 396 456 40,000  Level Oakland Center
Tue 11:10:57 AM 35.7586 -119.2358 338° Northwest 396 456 40,000  Level Oakland Center
Tue 11:11:58 AM 35.8625 -119.2894 337° Northwest 399 459 40,000  Level Oakland Center
Tue 11:12:59 AM 35.9842 -119.3517 338° Northwest 399 459 40,000  Level Oakland Center
Tue 11:14:00 AM 36.0825 -119.4022 337° Northwest 391 450 40,000 -293 Level Oakland Center
Tue 11:15:02 AM 36.1825 -119.4619 334° Northwest 394 453 39,400 -732 Descending Oakland Center
Tue 11:16:03 AM 36.2764 -119.5289 330° Northwest 394 453 38,500 -689 Descending Oakland Center
Tue 11:17:04 AM 36.3725 -119.5981 330° Northwest 395 455 38,000 -344 Descending Oakland Center
Tue 11:18:05 AM 36.4689 -119.6658 331° Northwest 397 457 37,800 -590 Descending Oakland Center
Tue 11:19:06 AM 36.5656 -119.7347 330° Northwest 401 461 36,800 -927 Descending Oakland Center
Tue 11:20:08 AM 36.6639 -119.8031 331° Northwest 403 464 35,900 -976 Descending Oakland Center
Tue 11:21:09 AM 36.7614 -119.8728 330° Northwest 406 467 34,800 -934 Descending Oakland Center
Tue 11:22:10 AM 36.8797 -119.9581 330° Northwest 407 468 34,000 -393 Descending Oakland Center
Tue 11:23:11 AM 36.9753 -120.0267 330° Northwest 402 463 34,000 -878 Level Oakland Center
Tue 11:24:13 AM 37.0706 -120.0958 330° Northwest 399 459 32,200 -1,854 Descending Oakland Center
Tue 11:25:14 AM 37.1561 -120.1581 330° Northwest 388 447 30,200 -2,016 Descending Oakland Center
Tue 11:26:15 AM 37.2467 -120.2217 331° Northwest 377 434 28,100 -2,066 Descending Oakland Center
Tue 11:27:16 AM 37.3350 -120.2869 330° Northwest 373 429 26,000 -2,066 Descending Oakland Center
Tue 11:28:17 AM 37.4367 -120.3622 330° Northwest 356 410 23,900 -1,512 Descending Oakland Center
Tue 11:29:19 AM 37.5128 -120.4403 321° Northwest 353 406 22,900 -976 Descending Oakland Center
Tue 11:30:20 AM 37.5869 -120.5139 322° Northwest 344 396 21,900 -958 Descending Oakland Center
Tue 11:31:18 AM 37.6667 -120.5833 325° Northwest 331 381 21,000 -964 Descending Northern Cal TRACON
Tue 11:32:12 AM 37.7167 -120.6500 313° West 329 379 20,100 -1,000 Descending Northern Cal TRACON
Tue 11:33:12 AM 37.8000 -120.7167 328° Northwest 331 381 19,100 -1,000 Descending Northern Cal TRACON
Tue 11:34:12 AM 37.8667 -120.8000 315° West 327 376 18,100 -947 Descending Northern Cal TRACON
Tue 11:35:06 AM 37.9333 -120.8667 322° Northwest 322 371 17,300 -947 Descending Northern Cal TRACON
Tue 11:36:06 AM 38.0000 -120.9333 322° Northwest 321 369 16,300 -1,000 Descending Northern Cal TRACON
Tue 11:37:12 AM 38.0667 -121.0000 322° Northwest 313 360 15,200 -950 Descending Northern Cal TRACON
Tue 11:38:06 AM 38.1167 -121.0833 307° West 311 358 14,400 -1,000 Descending Northern Cal TRACON
Tue 11:39:06 AM 38.1833 -121.1667 316° Northwest 310 357 13,300 -1,000 Descending Northern Cal TRACON
Tue 11:40:12 AM 38.2333 -121.2500 307° West 304 350 12,300 -950 Descending Northern Cal TRACON
Tue 11:41:06 AM 38.2833 -121.3167 314° West 296 341 11,400 -1,053 Descending Northern Cal TRACON
Tue 11:42:06 AM 38.3500 -121.4000 316° Northwest 290 334 10,300 -1,000 Descending Northern Cal TRACON
Tue 11:43:00 AM 38.3833 -121.4667 303° West 282 325 9,500 -947 Descending Northern Cal TRACON
Tue 11:44:00 AM 38.4333 -121.5333 314° West 279 321 8,500 -1,350 Descending Northern Cal TRACON
Tue 11:45:00 AM 38.5000 -121.6000 322° Northwest 276 318 6,800 -1,697 Descending Northern Cal TRACON
Tue 11:45:39 AM 38.5408 -121.6256 334° Northwest 281 323 5,700 -1,560 Descending Oakland Center
Tue 11:46:40 AM 38.6078 -121.6756 330° Northwest 280 322 4,200 -1,317 Descending Oakland Center
Tue 11:47:42 AM 38.6831 -121.6900 351° North 275 316 3,000 -585 Descending Oakland Center
Tue 11:48:43 AM 38.7478 -121.6889 North 240 276 3,000 -492 Level Oakland Center
Tue 11:49:44 AM 38.7747 -121.6464 51° Northeast 186 214 2,000 -1,056 Descending Oakland Center
Tue 11:50:48 AM 38.7333 -121.6000 139° Southeast 145 167 800 -1,125 Descending Northern Cal TRACON

Login

Don't have an account? Register now (free) for customized features, flight alerts, and more!